Terminal Aerodrome Forecast
Issued by NWS

Home | Current Version | Previous Version | Text Only | Print | Product List | Glossary On
Versions: 1 2 3 4 5 6 7 8 9 10 11 12 13
000
FTUS42 TJSJ 021133
TAFJBQ
TAF
TJBQ 021133Z 0212/0312 VRB05KT P6SM FEW030
     FM021400 08013KT P6SM VCSH SCT025 BKN050
     FM021800 12007KT P6SM VCSH SCT025 BKN045
     FM022200 10007KT P6SM SCT040
      AMD NOT SKED 0302/0311=

USA.gov is the U.S. government's official web portal to all federal, state and local government web resources and services.